createdAt,value
2019-05-11T00:04:50.814Z,11.33
2019-05-11T00:09:57.966Z,11.27
2019-05-11T00:14:58.914Z,11.24
2019-05-11T00:20:03.284Z,11.23
2019-05-11T00:25:06.639Z,11.11
2019-05-11T00:30:10.011Z,10.96
2019-05-11T00:35:13.129Z,10.89
2019-05-11T00:40:17.597Z,10.92
2019-05-11T00:45:20.645Z,10.88
2019-05-11T00:50:37.877Z,10.81
2019-05-11T00:55:28.638Z,10.76
2019-05-11T01:00:31.845Z,10.74
2019-05-11T01:05:34.878Z,10.68
2019-05-11T01:10:42.078Z,10.63
2019-05-11T01:15:45.097Z,10.63
2019-05-11T01:20:48.173Z,10.62
2019-05-11T01:25:51.961Z,10.54
2019-05-11T01:30:55.301Z,10.55
2019-05-11T01:35:58.633Z,10.45
2019-05-11T01:41:02.018Z,10.50
2019-05-11T01:46:05.315Z,10.45
2019-05-11T01:51:08.315Z,10.49
2019-05-11T01:56:11.485Z,10.47
2019-05-11T02:01:14.781Z,10.50
2019-05-11T02:06:17.840Z,10.49
2019-05-11T02:11:21.141Z,10.47
2019-05-11T02:16:26.012Z,10.45
2019-05-11T02:21:28.935Z,10.42
2019-05-11T02:26:32.085Z,10.35
2019-05-11T02:31:35.760Z,10.43
2019-05-11T02:36:38.813Z,10.39
2019-05-11T02:41:44.600Z,10.44
2019-05-11T02:46:47.574Z,10.38
2019-05-11T02:51:51.240Z,10.38
2019-05-11T02:56:54.203Z,10.44
2019-05-11T03:01:57.282Z,10.42
2019-05-11T03:07:01.698Z,10.32
2019-05-11T03:12:04.668Z,10.40
2019-05-11T03:17:14.450Z,10.45
2019-05-11T03:22:17.961Z,10.36
2019-05-11T03:27:21.312Z,10.46
2019-05-11T03:32:24.526Z,10.46
2019-05-11T03:37:27.507Z,10.49
2019-05-11T03:42:30.537Z,10.55
2019-05-11T03:47:33.625Z,10.58
2019-05-11T03:52:36.760Z,10.55
2019-05-11T03:57:40.030Z,10.56
2019-05-11T04:02:44.248Z,10.59
2019-05-11T04:07:47.388Z,10.68
2019-05-11T04:12:50.497Z,10.64
2019-05-11T04:17:53.599Z,10.76
2019-05-11T04:22:56.973Z,10.79
2019-05-11T04:27:59.967Z,10.82
2019-05-11T04:33:05.940Z,10.82
2019-05-11T04:38:09.015Z,10.90
2019-05-11T04:43:12.200Z,10.92
2019-05-11T04:48:15.255Z,10.90
2019-05-11T04:53:21.774Z,10.93
2019-05-11T04:58:24.847Z,11.01
2019-05-11T05:03:40.245Z,11.13
2019-05-11T05:08:32.711Z,11.55
2019-05-11T05:13:35.728Z,11.77
2019-05-11T05:18:42.267Z,11.82
2019-05-11T05:23:44.807Z,11.75
2019-05-11T05:28:48.409Z,11.78
2019-05-11T05:33:51.505Z,12.46
2019-05-11T05:38:54.542Z,12.20
2019-05-11T05:43:59.144Z,12.74
2019-05-11T05:49:02.191Z,12.65
2019-05-11T05:54:06.318Z,12.96
2019-05-11T05:59:10.574Z,12.87
2019-05-11T06:04:13.574Z,13.03
2019-05-11T06:09:16.724Z,13.19
2019-05-11T06:14:19.821Z,12.93
2019-05-11T06:19:22.939Z,13.16
2019-05-11T06:24:25.912Z,13.30
2019-05-11T06:29:28.976Z,13.73
2019-05-11T06:34:32.009Z,13.80
2019-05-11T06:39:35.117Z,13.56
2019-05-11T06:44:38.110Z,13.45
2019-05-11T06:49:41.145Z,14.01
2019-05-11T06:54:44.404Z,13.95
2019-05-11T06:59:47.512Z,14.15
2019-05-11T07:04:50.506Z,14.03
2019-05-11T07:09:53.502Z,14.30
2019-05-11T07:14:56.715Z,14.52
2019-05-11T07:19:59.877Z,14.69
2019-05-11T07:25:04.316Z,14.82
2019-05-11T07:30:08.969Z,15.03
2019-05-11T07:35:12.609Z,14.91
2019-05-11T07:40:15.689Z,15.30
2019-05-11T07:45:18.885Z,15.90
2019-05-11T07:50:21.909Z,15.86
2019-05-11T07:55:24.864Z,15.96
2019-05-11T08:00:28.530Z,15.33
2019-05-11T08:05:31.733Z,15.47
2019-05-11T08:10:34.868Z,16.20
2019-05-11T08:15:38.345Z,16.25
2019-05-11T08:20:43.715Z,16.60
2019-05-11T08:25:53.948Z,16.71
2019-05-11T08:30:54.723Z,16.91
2019-05-11T08:35:58.403Z,17.26
2019-05-11T08:41:01.710Z,17.17
2019-05-11T08:46:04.720Z,17.76
2019-05-11T08:51:10.709Z,17.89
2019-05-11T08:56:14.494Z,17.00
2019-05-11T09:01:18.373Z,17.58
2019-05-11T09:06:21.782Z,18.13
2019-05-11T09:11:25.155Z,17.87
2019-05-11T09:16:29.067Z,17.63
2019-05-11T09:21:32.345Z,17.64
2019-05-11T09:26:38.898Z,17.30
2019-05-11T09:31:42.302Z,16.90
2019-05-11T09:36:47.816Z,17.26
2019-05-11T09:41:50.421Z,17.70
2019-05-11T09:46:53.592Z,18.32
2019-05-11T09:51:58.884Z,17.24
2019-05-11T09:57:02.064Z,17.71
2019-05-11T10:02:05.210Z,17.96
2019-05-11T10:07:08.974Z,17.57
2019-05-11T10:12:12.291Z,17.91
2019-05-11T10:17:15.478Z,17.89
2019-05-11T10:22:18.711Z,18.24
2019-05-11T10:27:21.876Z,18.04
2019-05-11T10:32:25.925Z,18.07
2019-05-11T10:37:29.018Z,18.17
2019-05-11T10:42:33.579Z,18.27
2019-05-11T10:47:38.287Z,18.69
2019-05-11T10:52:41.725Z,18.60
2019-05-11T10:57:48.741Z,18.35
2019-05-11T11:02:52.256Z,18.24
2019-05-11T11:07:58.774Z,18.16
2019-05-11T11:13:01.875Z,17.88
2019-05-11T11:18:04.970Z,18.09
2019-05-11T11:23:08.777Z,19.01
2019-05-11T11:28:12.161Z,18.32
2019-05-11T11:33:18.400Z,18.69
2019-05-11T11:38:21.521Z,19.47
2019-05-11T11:43:28.579Z,19.33
2019-05-11T11:48:29.451Z,19.68
2019-05-11T11:53:32.971Z,19.74
2019-05-11T11:58:37.997Z,19.34
2019-05-11T12:03:40.511Z,19.04
2019-05-11T12:08:44.337Z,19.40
2019-05-11T12:13:47.798Z,19.31
2019-05-11T12:18:50.991Z,19.92
2019-05-11T12:23:53.940Z,18.89
2019-05-11T12:28:57.722Z,18.48
2019-05-11T12:34:00.882Z,19.11
2019-05-11T12:39:08.467Z,18.78
2019-05-11T12:44:11.757Z,18.29
2019-05-11T12:49:14.787Z,18.84
2019-05-11T12:54:18.682Z,19.38
2019-05-11T12:59:21.985Z,19.71
2019-05-11T13:04:25.041Z,19.38
2019-05-11T13:09:28.825Z,19.94
2019-05-11T13:14:32.542Z,19.97
2019-05-11T13:19:35.766Z,20.09
2019-05-11T13:24:38.760Z,19.82
2019-05-11T13:29:41.773Z,19.75
2019-05-11T13:34:44.992Z,19.85
2019-05-11T13:39:48.623Z,20.53
2019-05-11T13:44:51.798Z,20.25
2019-05-11T13:49:54.785Z,20.76
2019-05-11T13:54:58.444Z,20.03
2019-05-11T14:00:01.623Z,20.38
2019-05-11T14:05:04.747Z,20.42
2019-05-11T14:10:08.282Z,20.67
2019-05-11T14:15:11.606Z,20.20
2019-05-11T14:20:14.700Z,20.42
2019-05-11T14:25:18.571Z,20.84
2019-05-11T14:30:22.207Z,20.62
2019-05-11T14:35:25.259Z,20.22
2019-05-11T14:40:28.380Z,20.39
2019-05-11T14:45:31.406Z,20.50
2019-05-11T14:50:34.430Z,20.36
2019-05-11T14:55:38.118Z,20.08
2019-05-11T15:00:41.650Z,20.38
2019-05-11T15:05:44.814Z,20.55
2019-05-11T15:10:48.872Z,20.63
2019-05-11T15:15:52.226Z,20.14
2019-05-11T15:20:55.260Z,19.91
2019-05-11T15:25:58.722Z,20.23
2019-05-11T15:31:01.922Z,20.64
2019-05-11T15:36:04.999Z,20.17
2019-05-11T15:41:08.507Z,19.80
2019-05-11T15:46:11.602Z,19.81
2019-05-11T15:51:14.739Z,19.90
2019-05-11T15:56:19.088Z,19.61
2019-05-11T16:01:22.404Z,19.65
2019-05-11T16:06:25.460Z,19.89
2019-05-11T16:11:28.568Z,20.10
2019-05-11T16:16:31.960Z,20.19
2019-05-11T16:21:35.179Z,20.25
2019-05-11T16:26:38.280Z,20.38
2019-05-11T16:31:41.415Z,20.34
2019-05-11T16:36:44.576Z,20.14
2019-05-11T16:41:48.642Z,19.84
2019-05-11T16:46:52.143Z,19.65
2019-05-11T16:51:55.380Z,19.51
2019-05-11T16:56:58.587Z,19.42
2019-05-11T17:02:01.727Z,19.19
2019-05-11T17:07:04.873Z,19.07
2019-05-11T17:12:08.696Z,19.03
2019-05-11T17:17:11.987Z,19.00
2019-05-11T17:22:15.384Z,19.03
2019-05-11T17:27:18.491Z,18.92
2019-05-11T17:32:21.653Z,18.79
2019-05-11T17:37:24.705Z,18.71
2019-05-11T17:42:27.766Z,18.60
2019-05-11T17:47:31.150Z,18.49
2019-05-11T17:52:34.221Z,18.34
2019-05-11T17:57:38.265Z,18.17
2019-05-11T18:02:41.457Z,18.06
2019-05-11T18:07:44.516Z,17.96
2019-05-11T18:12:48.638Z,17.90
2019-05-11T18:17:52.027Z,17.77
2019-05-11T18:22:55.224Z,17.72
2019-05-11T18:27:58.439Z,17.65
2019-05-11T18:33:01.723Z,17.50
2019-05-11T18:38:05.199Z,17.35
2019-05-11T18:43:08.763Z,17.07
2019-05-11T18:48:11.992Z,16.62
2019-05-11T18:53:15.511Z,16.29
2019-05-11T18:58:18.860Z,16.28
2019-05-11T19:03:22.122Z,16.12
2019-05-11T19:08:25.253Z,15.99
2019-05-11T19:13:28.526Z,15.71
2019-05-11T19:18:31.816Z,15.53
2019-05-11T19:23:34.938Z,15.38
2019-05-11T19:28:38.460Z,15.29
2019-05-11T19:33:41.847Z,15.33
2019-05-11T19:38:44.834Z,15.37
2019-05-11T19:43:48.615Z,15.47
2019-05-11T19:48:52.458Z,15.49
2019-05-11T19:53:57.607Z,15.50
2019-05-11T19:59:00.793Z,15.48
2019-05-11T20:04:04.046Z,15.70
2019-05-11T20:09:08.710Z,15.81
2019-05-11T20:14:12.197Z,15.90
2019-05-11T20:19:15.463Z,15.96
2019-05-11T20:24:18.706Z,15.99
2019-05-11T20:29:21.984Z,15.77
2019-05-11T20:34:25.138Z,15.63
2019-05-11T20:39:28.824Z,15.46
2019-05-11T20:44:32.122Z,15.27
2019-05-11T20:49:35.174Z,15.03
2019-05-11T20:54:38.675Z,14.52
2019-05-11T20:59:42.172Z,14.22
2019-05-11T21:04:45.338Z,13.95
2019-05-11T21:09:48.438Z,13.96
2019-05-11T21:14:51.586Z,14.05
2019-05-11T21:19:55.155Z,13.90
2019-05-11T21:24:58.506Z,13.93
2019-05-11T21:30:01.597Z,13.89
2019-05-11T21:35:05.287Z,14.05
2019-05-11T21:40:09.629Z,13.95
2019-05-11T21:45:13.086Z,13.86
2019-05-11T21:50:18.830Z,13.99
2019-05-11T21:55:21.315Z,14.09
2019-05-11T22:00:28.151Z,14.13
2019-05-11T22:05:31.251Z,14.38
2019-05-11T22:10:34.520Z,14.44
2019-05-11T22:15:38.621Z,14.52
2019-05-11T22:20:42.369Z,14.57
2019-05-11T22:25:47.610Z,14.64
2019-05-11T22:30:50.493Z,14.81
2019-05-11T22:35:58.711Z,14.93
2019-05-11T22:41:01.889Z,14.93
2019-05-11T22:46:05.063Z,14.92
2019-05-11T22:51:08.123Z,14.84
2019-05-11T22:56:11.078Z,14.79
2019-05-11T23:01:14.331Z,14.86
2019-05-11T23:06:18.430Z,14.87
2019-05-11T23:11:21.621Z,14.58
2019-05-11T23:16:24.659Z,14.26
2019-05-11T23:21:29.943Z,14.33
2019-05-11T23:26:32.538Z,14.46
2019-05-11T23:31:35.680Z,14.43
2019-05-11T23:36:38.778Z,14.25
2019-05-11T23:41:41.747Z,14.24
2019-05-11T23:46:44.881Z,13.89
2019-05-11T23:51:47.925Z,13.66
2019-05-11T23:56:51.039Z,13.75
